Aeroporto :
LOGIN :

Iscrizione | Disclaimer

   EN    FR    IT 

 










Sommario :    VFR   VFR Marginale   IFR   IFR Intensivo   IFR Molto Intensivo
Visibilità : 
Base nubi : 
>= 8 km
>= 3000ft
5 / 8 km
1000 / 3000 ft
1500m / 5 km
500 / 1000 ft
800 / 1500m
200 / 500 ft
< 800m
< 200 ft
Simboli :   Temporali  Nebbia  Neve Forte  Precipitazioni Forti  Vento > 20 kt
SIGMETs :   Varie  Temporali  Ghiacco  Turbolenza  Onda orograficha  Ceneri Vulcaniche






- Altitudine del aeroporto : 138 ft
- Codice IATA : RLG


ETNL - Rostock Laage

ULTIMO METAR :
  • 231720Z 28012KT 9999 -RADZ BKN008 04/03 Q1000 GRN

METARs OBSOLETI :
  • 231620Z 27008KT 9999 -RA BKN010 04/03 Q0999 GRN
  • 231520Z 27008KT 9999 -RA BKN010 04/03 Q0999 GRN

TAF TAF ETNL
Valido dal 23 a 18 ore il 24 a 06 ore UTC


231720Z 2318/2406 27010G20KT 9999 NSW SCT015 BKN030
TEMPO 2318/2319 28012G22KT 5000 -RADZ BKN010
TEMPO 2319/2321 29015G25KT 4000 SHRA BKN010 BKN020CB
TEMPO 2321/2406 28015G30KT 8000 NSW BKN015 BY ETGL



MetMap, La meteo Aeronautica in un colpo d'occhio ! - Copyright ORBIFLY Dicembre 2007 - Disclaimer

ORBIFLY MET'MAP TEAM :

Programmazione e sviluppo : Alexandra Zaïnal
Concezione : Baudouin d'Aumeries
Aiuto per la programmazione : Marc-Olivier Méhu
Supporto tecnico e logistico : Manuel Goepfert
Aiuto per la traduzione : Arnaldo La Scala

Contatto : metmap@orbifly.com




FONTI E CREDITI :

   NOAA